sensor_id;sensor_type;location;lat;lon;timestamp;pressure;altitude;pressure_sealevel;temperature;humidity
3150;BME280;32503;47.748;8.960;2023-01-28T00:01:48;97284.47;;;2.32;62.90
3150;BME280;32503;47.748;8.960;2023-01-28T00:04:16;97274.00;;;2.36;62.85
3150;BME280;32503;47.748;8.960;2023-01-28T00:06:44;97275.06;;;2.35;62.52
3150;BME280;32503;47.748;8.960;2023-01-28T00:09:11;97258.97;;;2.26;63.33
3150;BME280;32503;47.748;8.960;2023-01-28T00:11:38;97252.16;;;2.15;63.10
3150;BME280;32503;47.748;8.960;2023-01-28T00:14:05;97262.97;;;2.23;63.71
3150;BME280;32503;47.748;8.960;2023-01-28T00:16:32;97267.75;;;2.26;63.80
3150;BME280;32503;47.748;8.960;2023-01-28T00:18:59;97262.84;;;2.34;63.38
3150;BME280;32503;47.748;8.960;2023-01-28T00:21:27;97247.69;;;2.29;63.55
3150;BME280;32503;47.748;8.960;2023-01-28T00:23:55;97261.16;;;2.38;63.48
3150;BME280;32503;47.748;8.960;2023-01-28T00:26:23;97260.09;;;2.39;63.37
3150;BME280;32503;47.748;8.960;2023-01-28T00:28:50;97267.00;;;2.40;63.29
3150;BME280;32503;47.748;8.960;2023-01-28T00:31:20;97266.72;;;2.41;63.71
3150;BME280;32503;47.748;8.960;2023-01-28T00:33:49;97254.91;;;2.28;63.96
3150;BME280;32503;47.748;8.960;2023-01-28T00:36:18;97247.97;;;2.27;64.07
3150;BME280;32503;47.748;8.960;2023-01-28T00:38:50;97259.59;;;2.37;64.38
3150;BME280;32503;47.748;8.960;2023-01-28T00:41:20;97266.50;;;2.38;63.41
3150;BME280;32503;47.748;8.960;2023-01-28T00:43:48;97252.72;;;2.31;63.24
3150;BME280;32503;47.748;8.960;2023-01-28T00:46:16;97263.25;;;2.41;63.69
3150;BME280;32503;47.748;8.960;2023-01-28T00:48:43;97257.63;;;2.42;63.30
3150;BME280;32503;47.748;8.960;2023-01-28T00:51:14;97262.06;;;2.47;63.04
3150;BME280;32503;47.748;8.960;2023-01-28T00:53:42;97260.50;;;2.46;63.40
3150;BME280;32503;47.748;8.960;2023-01-28T00:56:13;97261.00;;;2.48;62.78
3150;BME280;32503;47.748;8.960;2023-01-28T00:58:41;97266.84;;;2.50;62.25
3150;BME280;32503;47.748;8.960;2023-01-28T01:01:10;97261.56;;;2.45;62.49
3150;BME280;32503;47.748;8.960;2023-01-28T01:03:37;97239.97;;;2.27;62.75
3150;BME280;32503;47.748;8.960;2023-01-28T01:06:05;97268.88;;;2.39;62.94
3150;BME280;32503;47.748;8.960;2023-01-28T01:08:33;97262.25;;;2.37;62.76
3150;BME280;32503;47.748;8.960;2023-01-28T01:11:09;97261.97;;;2.38;62.83
3150;BME280;32503;47.748;8.960;2023-01-28T01:13:38;97264.03;;;2.41;62.51
3150;BME280;32503;47.748;8.960;2023-01-28T01:16:08;97270.47;;;2.40;62.83
3150;BME280;32503;47.748;8.960;2023-01-28T01:18:36;97254.91;;;2.28;62.74
3150;BME280;32503;47.748;8.960;2023-01-28T01:21:09;97242.22;;;2.20;62.35
3150;BME280;32503;47.748;8.960;2023-01-28T01:23:36;97265.84;;;2.27;63.06
3150;BME280;32503;47.748;8.960;2023-01-28T01:26:04;97254.47;;;2.21;62.92
3150;BME280;32503;47.748;8.960;2023-01-28T01:28:32;97269.31;;;2.27;63.27
3150;BME280;32503;47.748;8.960;2023-01-28T01:31:02;97252.59;;;2.22;63.60
3150;BME280;32503;47.748;8.960;2023-01-28T01:33:30;97260.03;;;2.25;63.98
3150;BME280;32503;47.748;8.960;2023-01-28T01:35:58;97264.66;;;2.19;63.79
3150;BME280;32503;47.748;8.960;2023-01-28T01:38:26;97245.56;;;2.12;63.92
3150;BME280;32503;47.748;8.960;2023-01-28T01:40:56;97262.97;;;2.23;63.28
3150;BME280;32503;47.748;8.960;2023-01-28T01:43:24;97251.75;;;2.07;63.59
3150;BME280;32503;47.748;8.960;2023-01-28T01:45:55;97264.00;;;2.08;63.70
3150;BME280;32503;47.748;8.960;2023-01-28T01:48:29;97278.00;;;2.19;63.93
3150;BME280;32503;47.748;8.960;2023-01-28T01:51:02;97278.00;;;2.19;63.80
3150;BME280;32503;47.748;8.960;2023-01-28T01:53:34;97288.59;;;2.24;63.65
3150;BME280;32503;47.748;8.960;2023-01-28T01:56:06;97282.88;;;2.31;63.87
3150;BME280;32503;47.748;8.960;2023-01-28T01:58:38;97271.47;;;2.25;63.58
3150;BME280;32503;47.748;8.960;2023-01-28T02:01:08;97280.00;;;2.27;63.77
3150;BME280;32503;47.748;8.960;2023-01-28T02:03:42;97276.59;;;2.22;64.21
3150;BME280;32503;47.748;8.960;2023-01-28T02:06:13;97286.91;;;2.28;64.49
3150;BME280;32503;47.748;8.960;2023-01-28T02:08:43;97280.50;;;2.30;64.70
3150;BME280;32503;47.748;8.960;2023-01-28T02:11:11;97277.91;;;2.24;65.00
3150;BME280;32503;47.748;8.960;2023-01-28T02:13:43;97287.13;;;2.32;64.77
3150;BME280;32503;47.748;8.960;2023-01-28T02:16:13;97291.97;;;2.30;64.84
3150;BME280;32503;47.748;8.960;2023-01-28T02:18:42;97287.50;;;2.25;65.71
3150;BME280;32503;47.748;8.960;2023-01-28T02:21:40;97287.41;;;2.31;65.30
3150;BME280;32503;47.748;8.960;2023-01-28T02:27:36;97294.94;;;2.28;65.37
3150;BME280;32503;47.748;8.960;2023-01-28T02:30:13;97294.63;;;2.30;65.45
3150;BME280;32503;47.748;8.960;2023-01-28T02:32:49;97263.41;;;2.12;64.96
3150;BME280;32503;47.748;8.960;2023-01-28T02:35:26;97281.59;;;2.28;65.21
3150;BME280;32503;47.748;8.960;2023-01-28T02:37:59;97275.47;;;2.28;65.45
3150;BME280;32503;47.748;8.960;2023-01-28T02:40:33;97282.09;;;2.31;64.81
3150;BME280;32503;47.748;8.960;2023-01-28T02:43:30;97286.84;;;2.34;64.94
3150;BME280;32503;47.748;8.960;2023-01-28T02:46:01;97287.56;;;2.39;64.77
3150;BME280;32503;47.748;8.960;2023-01-28T02:48:53;97292.09;;;2.39;64.55
3150;BME280;32503;47.748;8.960;2023-01-28T02:51:30;97288.41;;;2.35;64.05
3150;BME280;32503;47.748;8.960;2023-01-28T02:54:10;97282.56;;;2.33;64.16
3150;BME280;32503;47.748;8.960;2023-01-28T02:56:44;97293.84;;;2.30;64.48
3150;BME280;32503;47.748;8.960;2023-01-28T02:59:22;97286.41;;;2.26;64.84
3150;BME280;32503;47.748;8.960;2023-01-28T03:02:09;97282.97;;;2.26;64.50
3150;BME280;32503;47.748;8.960;2023-01-28T03:04:44;97287.50;;;2.25;64.74
3150;BME280;32503;47.748;8.960;2023-01-28T03:07:15;97288.31;;;2.26;64.12
3150;BME280;32503;47.748;8.960;2023-01-28T03:09:45;97288.59;;;2.24;64.53
3150;BME280;32503;47.748;8.960;2023-01-28T03:12:18;97272.66;;;2.19;64.53
3150;BME280;32503;47.748;8.960;2023-01-28T03:15:09;97286.41;;;2.26;64.93
3150;BME280;32503;47.748;8.960;2023-01-28T03:18:01;97279.94;;;2.14;65.03
3150;BME280;32503;47.748;8.960;2023-01-28T03:20:53;97289.09;;;2.26;65.12
3150;BME280;32503;47.748;8.960;2023-01-28T03:23:46;97291.69;;;2.32;65.11
3150;BME280;32503;47.748;8.960;2023-01-28T03:26:43;97284.69;;;2.36;64.58
3150;BME280;32503;47.748;8.960;2023-01-28T03:29:31;97281.72;;;2.37;64.18
3150;BME280;32503;47.748;8.960;2023-01-28T03:32:17;97282.56;;;2.33;64.22
3150;BME280;32503;47.748;8.960;2023-01-28T03:35:05;97282.00;;;2.36;64.04
3150;BME280;32503;47.748;8.960;2023-01-28T03:37:51;97288.34;;;2.40;63.59
3150;BME280;32503;47.748;8.960;2023-01-28T03:40:18;97293.69;;;2.40;63.97
3150;BME280;32503;47.748;8.960;2023-01-28T03:42:45;97287.06;;;2.37;64.20
3150;BME280;32503;47.748;8.960;2023-01-28T03:45:13;97294.00;;;2.38;63.62
3150;BME280;32503;47.748;8.960;2023-01-28T03:47:40;97293.25;;;2.33;64.20
3150;BME280;32503;47.748;8.960;2023-01-28T03:50:10;97287.91;;;2.33;63.92
3150;BME280;32503;47.748;8.960;2023-01-28T03:52:37;97293.03;;;2.29;64.04
3150;BME280;32503;47.748;8.960;2023-01-28T03:55:05;97246.47;;;2.02;63.53
3150;BME280;32503;47.748;8.960;2023-01-28T03:57:38;97297.03;;;2.32;64.26
3150;BME280;32503;47.748;8.960;2023-01-28T04:00:08;97299.09;;;2.35;63.83
3150;BME280;32503;47.748;8.960;2023-01-28T04:02:36;97302.56;;;2.35;63.82
3150;BME280;32503;47.748;8.960;2023-01-28T04:05:07;97305.31;;;2.30;64.15
3150;BME280;32503;47.748;8.960;2023-01-28T04:07:38;97305.09;;;2.26;64.86
3150;BME280;32503;47.748;8.960;2023-01-28T04:10:07;97303.00;;;2.23;64.61
3150;BME280;32503;47.748;8.960;2023-01-28T04:12:34;97283.25;;;2.24;64.70
3150;BME280;32503;47.748;8.960;2023-01-28T04:15:05;97305.88;;;2.27;64.56
3150;BME280;32503;47.748;8.960;2023-01-28T04:17:43;97295.28;;;2.22;64.47
3150;BME280;32503;47.748;8.960;2023-01-28T04:20:11;97306.38;;;2.29;64.48
3150;BME280;32503;47.748;8.960;2023-01-28T04:22:40;97309.84;;;2.30;64.86
3150;BME280;32503;47.748;8.960;2023-01-28T04:25:08;97303.44;;;2.31;64.58
3150;BME280;32503;47.748;8.960;2023-01-28T04:27:35;97304.53;;;2.30;64.73
3150;BME280;32503;47.748;8.960;2023-01-28T04:30:03;97312.22;;;2.31;65.41
3150;BME280;32503;47.748;8.960;2023-01-28T04:32:30;97311.44;;;2.31;64.87
3150;BME280;32503;47.748;8.960;2023-01-28T04:34:57;97308.25;;;2.28;64.88
3150;BME280;32503;47.748;8.960;2023-01-28T04:37:24;97302.66;;;2.30;64.65
3150;BME280;32503;47.748;8.960;2023-01-28T04:39:53;97301.84;;;2.30;64.78
3150;BME280;32503;47.748;8.960;2023-01-28T04:42:20;97302.34;;;2.32;64.64
3150;BME280;32503;47.748;8.960;2023-01-28T04:44:47;97313.53;;;2.34;64.96
3150;BME280;32503;47.748;8.960;2023-01-28T04:47:14;97293.19;;;2.19;64.85
3150;BME280;32503;47.748;8.960;2023-01-28T04:49:41;97311.66;;;2.34;65.15
3150;BME280;32503;47.748;8.960;2023-01-28T04:52:08;97313.53;;;2.34;64.71
3150;BME280;32503;47.748;8.960;2023-01-28T04:54:35;97310.00;;;2.38;64.63
3150;BME280;32503;47.748;8.960;2023-01-28T04:57:03;97305.53;;;2.34;64.13
3150;BME280;32503;47.748;8.960;2023-01-28T04:59:30;97303.94;;;2.33;64.25
3150;BME280;32503;47.748;8.960;2023-01-28T05:01:57;97313.81;;;2.32;64.46
3150;BME280;32503;47.748;8.960;2023-01-28T05:04:25;97325.78;;;2.35;64.29
3150;BME280;32503;47.748;8.960;2023-01-28T05:06:52;97327.44;;;2.31;64.26
3150;BME280;32503;47.748;8.960;2023-01-28T05:09:19;97327.22;;;2.27;64.28
3150;BME280;32503;47.748;8.960;2023-01-28T05:11:46;97334.72;;;2.25;64.53
3150;BME280;32503;47.748;8.960;2023-01-28T05:14:14;97339.00;;;2.26;64.77
3150;BME280;32503;47.748;8.960;2023-01-28T05:16:41;97338.19;;;2.25;65.12
3150;BME280;32503;47.748;8.960;2023-01-28T05:19:08;97328.09;;;2.22;64.44
3150;BME280;32503;47.748;8.960;2023-01-28T05:21:36;97331.34;;;2.19;64.55
3150;BME280;32503;47.748;8.960;2023-01-28T05:24:03;97340.06;;;2.25;65.27
3150;BME280;32503;47.748;8.960;2023-01-28T05:26:30;97345.69;;;2.23;65.42
3150;BME280;32503;47.748;8.960;2023-01-28T05:28:57;97350.94;;;2.28;64.88
3150;BME280;32503;47.748;8.960;2023-01-28T05:31:26;97344.69;;;2.19;65.46
3150;BME280;32503;47.748;8.960;2023-01-28T05:33:53;97337.81;;;2.13;65.69
3150;BME280;32503;47.748;8.960;2023-01-28T05:36:20;97353.13;;;2.26;65.32
3150;BME280;32503;47.748;8.960;2023-01-28T05:38:47;97350.44;;;2.26;65.30
3150;BME280;32503;47.748;8.960;2023-01-28T05:41:14;97355.28;;;2.24;65.12
3150;BME280;32503;47.748;8.960;2023-01-28T05:43:41;97350.31;;;2.18;65.07
3150;BME280;32503;47.748;8.960;2023-01-28T05:46:08;97348.91;;;2.20;65.18
3150;BME280;32503;47.748;8.960;2023-01-28T05:48:37;97351.53;;;2.25;64.87
3150;BME280;32503;47.748;8.960;2023-01-28T05:51:04;97354.69;;;2.27;64.78
3150;BME280;32503;47.748;8.960;2023-01-28T05:53:31;97356.00;;;2.30;64.85
3150;BME280;32503;47.748;8.960;2023-01-28T05:55:58;97355.72;;;2.32;65.02
3150;BME280;32503;47.748;8.960;2023-01-28T05:58:26;97354.91;;;2.31;64.20
3150;BME280;32503;47.748;8.960;2023-01-28T06:00:55;97334.06;;;2.14;64.38
3150;BME280;32503;47.748;8.960;2023-01-28T06:03:23;97361.63;;;2.28;64.57
3150;BME280;32503;47.748;8.960;2023-01-28T06:05:51;97360.25;;;2.31;64.23
3150;BME280;32503;47.748;8.960;2023-01-28T06:08:18;97362.63;;;2.33;63.87
3150;BME280;32503;47.748;8.960;2023-01-28T06:10:45;97348.34;;;2.23;64.19
3150;BME280;32503;47.748;8.960;2023-01-28T06:13:13;97356.63;;;2.22;63.89
3150;BME280;32503;47.748;8.960;2023-01-28T06:15:40;97366.59;;;2.16;64.86
3150;BME280;32503;47.748;8.960;2023-01-28T06:18:07;97364.13;;;2.20;64.23
3150;BME280;32503;47.748;8.960;2023-01-28T06:20:34;97367.53;;;2.25;63.89
3150;BME280;32503;47.748;8.960;2023-01-28T06:23:02;97370.31;;;2.15;63.84
3150;BME280;32503;47.748;8.960;2023-01-28T06:25:29;97361.31;;;2.11;64.30
3150;BME280;32503;47.748;8.960;2023-01-28T06:27:56;97374.59;;;2.16;64.68
3150;BME280;32503;47.748;8.960;2023-01-28T06:30:23;97374.03;;;2.19;63.84
3150;BME280;32503;47.748;8.960;2023-01-28T06:32:53;97375.09;;;2.18;64.23
3150;BME280;32503;47.748;8.960;2023-01-28T06:35:21;97347.53;;;2.04;64.31
3150;BME280;32503;47.748;8.960;2023-01-28T06:37:48;97379.88;;;2.21;64.37
3150;BME280;32503;47.748;8.960;2023-01-28T06:40:17;97372.00;;;2.11;64.27
3150;BME280;32503;47.748;8.960;2023-01-28T06:42:45;97371.53;;;2.04;64.39
3150;BME280;32503;47.748;8.960;2023-01-28T06:45:12;97391.19;;;2.32;64.27
3150;BME280;32503;47.748;8.960;2023-01-28T06:47:39;97389.91;;;2.30;64.12
3150;BME280;32503;47.748;8.960;2023-01-28T06:50:07;97392.47;;;2.35;63.43
3150;BME280;32503;47.748;8.960;2023-01-28T06:52:35;97394.06;;;2.36;63.52
3150;BME280;32503;47.748;8.960;2023-01-28T06:55:02;97397.31;;;2.33;63.70
3150;BME280;32503;47.748;8.960;2023-01-28T06:57:30;97397.91;;;2.30;64.34
3150;BME280;32503;47.748;8.960;2023-01-28T06:59:57;97407.19;;;2.32;63.77
3150;BME280;32503;47.748;8.960;2023-01-28T07:02:24;97385.75;;;2.18;64.18
3150;BME280;32503;47.748;8.960;2023-01-28T07:04:51;97397.38;;;2.27;64.20
3150;BME280;32503;47.748;8.960;2023-01-28T07:07:18;97409.03;;;2.37;64.16
3150;BME280;32503;47.748;8.960;2023-01-28T07:09:45;97410.09;;;2.36;63.63
3150;BME280;32503;47.748;8.960;2023-01-28T07:12:12;97420.47;;;2.37;63.85
3150;BME280;32503;47.748;8.960;2023-01-28T07:14:41;97411.31;;;2.43;63.16
3150;BME280;32503;47.748;8.960;2023-01-28T07:17:08;97424.97;;;2.80;68.67
3150;BME280;32503;47.748;8.960;2023-01-28T07:19:36;97420.72;;;2.79;66.78
3150;BME280;32503;47.748;8.960;2023-01-28T07:22:03;97423.75;;;2.72;64.03
3150;BME280;32503;47.748;8.960;2023-01-28T07:24:30;97418.97;;;2.50;62.08
3150;BME280;32503;47.748;8.960;2023-01-28T07:26:57;97417.41;;;2.49;62.10
3150;BME280;32503;47.748;8.960;2023-01-28T07:29:25;97433.25;;;2.40;61.94
3150;BME280;32503;47.748;8.960;2023-01-28T07:31:53;97430.75;;;2.49;61.52
3150;BME280;32503;47.748;8.960;2023-01-28T07:34:20;97424.31;;;2.50;64.70
3150;BME280;32503;47.748;8.960;2023-01-28T07:36:47;97418.06;;;2.79;67.51
3150;BME280;32503;47.748;8.960;2023-01-28T07:39:14;97431.91;;;2.81;63.43
3150;BME280;32503;47.748;8.960;2023-01-28T07:41:42;97434.66;;;2.76;62.48
3150;BME280;32503;47.748;8.960;2023-01-28T07:44:09;97432.25;;;2.74;61.28
3150;BME280;32503;47.748;8.960;2023-01-28T07:46:36;97438.16;;;2.71;61.04
3150;BME280;32503;47.748;8.960;2023-01-28T07:49:04;97438.75;;;2.68;61.01
3150;BME280;32503;47.748;8.960;2023-01-28T07:51:32;97440.63;;;2.68;61.00
3150;BME280;32503;47.748;8.960;2023-01-28T07:53:59;97440.69;;;2.62;60.61
3150;BME280;32503;47.748;8.960;2023-01-28T07:56:26;97445.47;;;2.65;60.89
3150;BME280;32503;47.748;8.960;2023-01-28T07:58:54;97441.50;;;2.63;60.72
3150;BME280;32503;47.748;8.960;2023-01-28T08:01:21;97454.91;;;2.58;60.28
3150;BME280;32503;47.748;8.960;2023-01-28T08:03:48;97453.09;;;2.53;60.95
3150;BME280;32503;47.748;8.960;2023-01-28T08:06:16;97457.16;;;2.51;60.72
3150;BME280;32503;47.748;8.960;2023-01-28T08:08:43;97454.00;;;2.43;60.76
3150;BME280;32503;47.748;8.960;2023-01-28T08:11:10;97464.34;;;2.50;61.03
3150;BME280;32503;47.748;8.960;2023-01-28T08:13:37;97465.66;;;2.53;60.82
3150;BME280;32503;47.748;8.960;2023-01-28T08:16:05;97463.00;;;2.53;60.41
3150;BME280;32503;47.748;8.960;2023-01-28T08:18:33;97464.13;;;2.46;60.03
3150;BME280;32503;47.748;8.960;2023-01-28T08:21:00;97462.56;;;2.45;60.00
3150;BME280;32503;47.748;8.960;2023-01-28T08:23:28;97467.50;;;2.52;60.02
3150;BME280;32503;47.748;8.960;2023-01-28T08:25:57;97490.47;;;2.53;59.74
3150;BME280;32503;47.748;8.960;2023-01-28T08:28:25;97478.41;;;2.56;59.11
3150;BME280;32503;47.748;8.960;2023-01-28T08:30:52;97475.41;;;2.62;59.29
3150;BME280;32503;47.748;8.960;2023-01-28T08:33:19;97482.84;;;2.65;59.56
3150;BME280;32503;47.748;8.960;2023-01-28T08:35:46;97489.13;;;2.75;58.42
3150;BME280;32503;47.748;8.960;2023-01-28T08:38:14;97484.28;;;2.77;58.99
3150;BME280;32503;47.748;8.960;2023-01-28T08:40:43;97483.28;;;2.73;57.89
3150;BME280;32503;47.748;8.960;2023-01-28T08:43:11;97470.34;;;2.80;57.60
3150;BME280;32503;47.748;8.960;2023-01-28T08:45:39;97477.94;;;2.73;57.00
3150;BME280;32503;47.748;8.960;2023-01-28T08:48:09;97488.53;;;3.16;56.57
3150;BME280;32503;47.748;8.960;2023-01-28T08:50:38;97493.00;;;3.39;56.52
3150;BME280;32503;47.748;8.960;2023-01-28T08:53:09;97471.63;;;3.86;55.74
3150;BME280;32503;47.748;8.960;2023-01-28T08:55:36;97478.94;;;4.64;52.25
3150;BME280;32503;47.748;8.960;2023-01-28T08:58:10;97479.66;;;5.06;51.37
3150;BME280;32503;47.748;8.960;2023-01-28T09:00:38;97456.50;;;5.32;49.79
3150;BME280;32503;47.748;8.960;2023-01-28T09:03:05;97479.72;;;5.91;47.49
3150;BME280;32503;47.748;8.960;2023-01-28T09:05:33;97481.09;;;5.80;46.74
3150;BME280;32503;47.748;8.960;2023-01-28T09:08:02;97460.25;;;5.77;45.84
3150;BME280;32503;47.748;8.960;2023-01-28T09:10:29;97492.88;;;6.24;45.62
3150;BME280;32503;47.748;8.960;2023-01-28T09:12:57;97486.41;;;6.25;46.10
3150;BME280;32503;47.748;8.960;2023-01-28T09:15:25;97495.69;;;6.19;45.27
3150;BME280;32503;47.748;8.960;2023-01-28T09:17:56;97494.28;;;6.21;45.46
3150;BME280;32503;47.748;8.960;2023-01-28T09:20:24;97480.72;;;6.35;45.09
3150;BME280;32503;47.748;8.960;2023-01-28T09:22:51;97507.66;;;6.53;45.31
3150;BME280;32503;47.748;8.960;2023-01-28T09:25:18;97494.75;;;6.72;45.66
3150;BME280;32503;47.748;8.960;2023-01-28T09:27:45;97510.88;;;6.72;44.64
3150;BME280;32503;47.748;8.960;2023-01-28T09:30:13;97487.41;;;6.47;45.07
3150;BME280;32503;47.748;8.960;2023-01-28T09:32:41;97495.63;;;6.41;45.08
3150;BME280;32503;47.748;8.960;2023-01-28T09:35:09;97500.03;;;6.37;45.12
3150;BME280;32503;47.748;8.960;2023-01-28T09:37:36;97492.88;;;6.81;46.18
3150;BME280;32503;47.748;8.960;2023-01-28T09:40:04;97501.88;;;6.86;43.88
3150;BME280;32503;47.748;8.960;2023-01-28T09:42:58;97495.72;;;6.76;45.47
3150;BME280;32503;47.748;8.960;2023-01-28T09:45:35;97502.81;;;6.81;45.40
3150;BME280;32503;47.748;8.960;2023-01-28T09:48:09;97497.31;;;6.95;45.67
3150;BME280;32503;47.748;8.960;2023-01-28T09:50:42;97503.31;;;6.74;45.28
3150;BME280;32503;47.748;8.960;2023-01-28T09:53:15;97513.41;;;6.77;44.86
3150;BME280;32503;47.748;8.960;2023-01-28T09:55:46;97508.31;;;6.18;46.65
3150;BME280;32503;47.748;8.960;2023-01-28T09:58:15;97520.13;;;6.08;46.68
3150;BME280;32503;47.748;8.960;2023-01-28T10:00:52;97515.88;;;6.07;47.36
3150;BME280;32503;47.748;8.960;2023-01-28T10:03:39;97520.75;;;5.60;47.41
3150;BME280;32503;47.748;8.960;2023-01-28T10:06:21;97496.81;;;5.41;48.32
3150;BME280;32503;47.748;8.960;2023-01-28T10:09:17;97507.19;;;6.11;47.27
3150;BME280;32503;47.748;8.960;2023-01-28T10:12:02;97510.00;;;6.05;46.12
3150;BME280;32503;47.748;8.960;2023-01-28T10:14:48;97505.41;;;6.37;47.15
3150;BME280;32503;47.748;8.960;2023-01-28T10:17:24;97501.69;;;6.64;46.02
3150;BME280;32503;47.748;8.960;2023-01-28T10:19:58;97479.41;;;6.64;45.89
3150;BME280;32503;47.748;8.960;2023-01-28T10:22:31;97486.84;;;6.67;46.14
3150;BME280;32503;47.748;8.960;2023-01-28T10:25:04;97491.88;;;6.69;46.42
3150;BME280;32503;47.748;8.960;2023-01-28T10:27:35;97502.03;;;6.80;46.87
3150;BME280;32503;47.748;8.960;2023-01-28T10:30:17;97492.34;;;6.53;46.68
3150;BME280;32503;47.748;8.960;2023-01-28T10:32:51;97475.31;;;6.18;47.10
3150;BME280;32503;47.748;8.960;2023-01-28T10:35:21;97473.44;;;6.18;47.50
3150;BME280;32503;47.748;8.960;2023-01-28T10:37:49;97499.16;;;6.19;47.47
3150;BME280;32503;47.748;8.960;2023-01-28T10:40:18;97500.66;;;6.03;47.90
3150;BME280;32503;47.748;8.960;2023-01-28T10:42:45;97501.38;;;5.95;48.12
3150;BME280;32503;47.748;8.960;2023-01-28T10:45:20;97494.28;;;5.67;48.92
3150;BME280;32503;47.748;8.960;2023-01-28T10:47:52;97502.09;;;5.55;49.31
3150;BME280;32503;47.748;8.960;2023-01-28T10:50:24;97460.66;;;5.16;49.94
3150;BME280;32503;47.748;8.960;2023-01-28T10:52:55;97471.00;;;5.09;49.91
3150;BME280;32503;47.748;8.960;2023-01-28T10:55:25;97509.03;;;5.11;50.80
3150;BME280;32503;47.748;8.960;2023-01-28T10:57:53;97501.09;;;5.06;51.40
3150;BME280;32503;47.748;8.960;2023-01-28T11:00:26;97509.72;;;5.03;51.94
3150;BME280;32503;47.748;8.960;2023-01-28T11:02:56;97503.88;;;5.01;51.94
3150;BME280;32503;47.748;8.960;2023-01-28T11:05:27;97483.03;;;4.75;52.38
3150;BME280;32503;47.748;8.960;2023-01-28T11:08:17;97490.44;;;4.78;52.56
3150;BME280;32503;47.748;8.960;2023-01-28T11:10:46;97507.50;;;4.82;52.85
3150;BME280;32503;47.748;8.960;2023-01-28T11:13:18;97515.34;;;4.79;52.92
3150;BME280;32503;47.748;8.960;2023-01-28T11:15:47;97519.84;;;4.42;53.94
3150;BME280;32503;47.748;8.960;2023-01-28T11:18:18;97513.91;;;4.45;53.79
3150;BME280;32503;47.748;8.960;2023-01-28T11:20:54;97513.00;;;4.49;54.03
3150;BME280;32503;47.748;8.960;2023-01-28T11:23:26;97493.66;;;4.39;53.78
3150;BME280;32503;47.748;8.960;2023-01-28T11:26:03;97512.09;;;4.40;54.25
3150;BME280;32503;47.748;8.960;2023-01-28T11:28:32;97508.84;;;4.29;54.61
3150;BME280;32503;47.748;8.960;2023-01-28T11:31:01;97507.94;;;4.34;54.42
3150;BME280;32503;47.748;8.960;2023-01-28T11:33:35;97494.06;;;4.04;54.89
3150;BME280;32503;47.748;8.960;2023-01-28T11:36:13;97517.66;;;4.30;54.85
3150;BME280;32503;47.748;8.960;2023-01-28T11:38:50;97509.22;;;4.36;54.70
3150;BME280;32503;47.748;8.960;2023-01-28T11:41:22;97510.19;;;4.27;54.64
3150;BME280;32503;47.748;8.960;2023-01-28T11:43:51;97500.91;;;4.24;54.88
3150;BME280;32503;47.748;8.960;2023-01-28T11:46:41;97509.72;;;4.25;55.04
3150;BME280;32503;47.748;8.960;2023-01-28T11:49:23;97508.53;;;4.31;54.89
3150;BME280;32503;47.748;8.960;2023-01-28T11:52:00;97516.28;;;4.32;54.85
3150;BME280;32503;47.748;8.960;2023-01-28T11:54:41;97507.13;;;4.20;55.21
3150;BME280;32503;47.748;8.960;2023-01-28T11:57:21;97499.72;;;4.16;55.55
3150;BME280;32503;47.748;8.960;2023-01-28T12:00:08;97482.53;;;4.04;55.07
3150;BME280;32503;47.748;8.960;2023-01-28T12:02:51;97505.97;;;4.26;54.92
3150;BME280;32503;47.748;8.960;2023-01-28T12:05:45;97506.34;;;4.05;55.64
3150;BME280;32503;47.748;8.960;2023-01-28T12:08:21;97489.69;;;4.08;55.82
3150;BME280;32503;47.748;8.960;2023-01-28T12:11:21;97482.56;;;4.17;55.29
3150;BME280;32503;47.748;8.960;2023-01-28T12:14:17;97498.31;;;4.33;55.30
3150;BME280;32503;47.748;8.960;2023-01-28T12:17:01;97470.28;;;4.16;55.47
3150;BME280;32503;47.748;8.960;2023-01-28T12:19:48;97487.31;;;4.21;54.87
3150;BME280;32503;47.748;8.960;2023-01-28T12:26:05;97486.81;;;4.18;55.23
3150;BME280;32503;47.748;8.960;2023-01-28T12:28:56;97503.19;;;4.31;55.02
3150;BME280;32503;47.748;8.960;2023-01-28T12:31:51;97495.84;;;4.23;54.49
3150;BME280;32503;47.748;8.960;2023-01-28T12:34:54;97503.19;;;4.17;54.87
3150;BME280;32503;47.748;8.960;2023-01-28T12:37:36;97496.63;;;4.23;54.56
3150;BME280;32503;47.748;8.960;2023-01-28T12:40:35;97495.25;;;4.26;54.56
3150;BME280;32503;47.748;8.960;2023-01-28T12:43:12;97498.41;;;4.28;54.68
3150;BME280;32503;47.748;8.960;2023-01-28T12:45:45;97497.22;;;4.34;54.74
3150;BME280;32503;47.748;8.960;2023-01-28T12:48:18;97500.00;;;4.43;54.01
3150;BME280;32503;47.748;8.960;2023-01-28T12:50:50;97498.63;;;4.45;54.35
3150;BME280;32503;47.748;8.960;2023-01-28T12:53:25;97484.25;;;4.13;53.38
3150;BME280;32503;47.748;8.960;2023-01-28T12:55:57;97491.56;;;4.22;54.00
3150;BME280;32503;47.748;8.960;2023-01-28T12:58:38;97506.56;;;4.36;54.01
3150;BME280;32503;47.748;8.960;2023-01-28T13:01:11;97465.41;;;4.18;53.71
3150;BME280;32503;47.748;8.960;2023-01-28T13:03:47;97486.13;;;4.27;54.61
3150;BME280;32503;47.748;8.960;2023-01-28T13:06:24;97493.38;;;4.40;54.29
3150;BME280;32503;47.748;8.960;2023-01-28T13:08:59;97496.53;;;4.42;54.39
3150;BME280;32503;47.748;8.960;2023-01-28T13:11:33;97474.81;;;4.30;53.77
3150;BME280;32503;47.748;8.960;2023-01-28T13:14:03;97495.44;;;4.43;53.77
3150;BME280;32503;47.748;8.960;2023-01-28T13:16:31;97492.78;;;4.43;53.53
3150;BME280;32503;47.748;8.960;2023-01-28T13:19:10;97488.59;;;4.37;53.85
3150;BME280;32503;47.748;8.960;2023-01-28T13:21:47;97501.88;;;4.42;53.57
3150;BME280;32503;47.748;8.960;2023-01-28T13:24:30;97496.53;;;4.42;53.60
3150;BME280;32503;47.748;8.960;2023-01-28T13:27:10;97502.56;;;4.34;54.38
3150;BME280;32503;47.748;8.960;2023-01-28T13:29:39;97504.47;;;4.33;54.17
3150;BME280;32503;47.748;8.960;2023-01-28T13:32:31;97502.78;;;4.37;54.29
3150;BME280;32503;47.748;8.960;2023-01-28T13:35:02;97511.41;;;4.34;53.86
3150;BME280;32503;47.748;8.960;2023-01-28T13:37:33;97506.34;;;4.33;54.00
3150;BME280;32503;47.748;8.960;2023-01-28T13:40:15;97504.16;;;4.35;54.06
3150;BME280;32503;47.748;8.960;2023-01-28T13:42:58;97517.84;;;4.33;54.23
3150;BME280;32503;47.748;8.960;2023-01-28T13:45:27;97499.00;;;4.25;53.99
3150;BME280;32503;47.748;8.960;2023-01-28T13:50:43;97519.75;;;4.33;53.89
3150;BME280;32503;47.748;8.960;2023-01-28T13:53:26;97493.72;;;4.06;54.45
3150;BME280;32503;47.748;8.960;2023-01-28T13:55:57;97519.84;;;4.28;54.49
3150;BME280;32503;47.748;8.960;2023-01-28T13:59:30;97518.84;;;4.24;54.47